createdAt,value
2023-05-13T00:00:34.893Z,11.48
2023-05-13T00:03:01.723Z,13.05
2023-05-13T00:05:28.575Z,13.35
2023-05-13T00:07:55.869Z,14.38
2023-05-13T00:10:22.889Z,12.30
2023-05-13T00:12:49.768Z,12.85
2023-05-13T00:15:16.451Z,15.10
2023-05-13T00:17:43.164Z,20.83
2023-05-13T00:20:09.929Z,12.20
2023-05-13T00:22:36.587Z,14.85
2023-05-13T00:25:04.121Z,12.43
2023-05-13T00:27:32.921Z,13.60
2023-05-13T00:30:02.525Z,15.75
2023-05-13T00:32:29.258Z,14.57
2023-05-13T00:34:55.950Z,13.30
2023-05-13T00:37:22.719Z,16.65
2023-05-13T00:39:49.522Z,13.65
2023-05-13T00:42:16.250Z,13.65
2023-05-13T00:44:42.922Z,12.48
2023-05-13T00:47:11.910Z,13.60
2023-05-13T00:49:38.844Z,13.35
2023-05-13T00:52:05.654Z,13.55
2023-05-13T00:54:33.082Z,18.27
2023-05-13T00:57:00.477Z,11.63
2023-05-13T00:59:29.451Z,17.73
2023-05-13T01:02:14.545Z,16.20
2023-05-13T01:05:01.126Z,16.08
2023-05-13T01:07:45.146Z,14.85
2023-05-13T01:10:19.768Z,15.73
2023-05-13T01:12:46.995Z,15.48
2023-05-13T01:15:22.538Z,15.20
2023-05-13T01:20:22.236Z,13.18
2023-05-13T01:22:49.431Z,14.32
2023-05-13T01:25:16.238Z,18.48
2023-05-13T01:27:43.194Z,19.27
2023-05-13T01:30:10.734Z,15.75
2023-05-13T01:32:38.058Z,18.90
2023-05-13T01:35:05.703Z,17.15
2023-05-13T01:37:32.643Z,18.80
2023-05-13T01:39:59.412Z,16.75
2023-05-13T01:42:28.340Z,16.90
2023-05-13T01:44:54.999Z,18.67
2023-05-13T01:47:21.702Z,18.10
2023-05-13T01:49:48.655Z,19.40
2023-05-13T01:52:15.691Z,18.27
2023-05-13T01:54:42.710Z,20.40
2023-05-13T01:57:09.420Z,19.50
2023-05-13T01:59:36.050Z,23.42
2023-05-13T02:02:04.188Z,19.95
2023-05-13T02:04:30.959Z,16.00
2023-05-13T02:06:57.685Z,16.60
2023-05-13T02:09:24.412Z,20.17
2023-05-13T02:11:51.229Z,20.70
2023-05-13T02:14:17.981Z,17.55
2023-05-13T02:16:44.738Z,16.95
2023-05-13T02:19:11.460Z,23.13
2023-05-13T02:21:38.358Z,14.75
2023-05-13T02:24:05.748Z,19.52
2023-05-13T02:26:32.579Z,22.30
2023-05-13T02:28:59.235Z,18.40
2023-05-13T02:31:25.953Z,17.50
2023-05-13T02:33:52.654Z,18.33
2023-05-13T02:36:19.345Z,18.30
2023-05-13T02:38:46.063Z,17.83
2023-05-13T02:41:12.790Z,22.65
2023-05-13T02:43:39.431Z,16.15
2023-05-13T02:46:06.112Z,14.80
2023-05-13T02:48:32.855Z,18.58
2023-05-13T02:50:59.476Z,16.58
2023-05-13T02:53:26.341Z,22.85
2023-05-13T02:55:54.382Z,17.20
2023-05-13T02:58:21.053Z,26.30
2023-05-13T03:00:47.672Z,17.45
2023-05-13T03:03:14.458Z,25.17
2023-05-13T03:05:41.194Z,12.77
2023-05-13T03:08:07.840Z,22.45
2023-05-13T03:10:34.939Z,16.98
2023-05-13T03:13:01.623Z,22.92
2023-05-13T03:15:28.304Z,20.58
2023-05-13T03:17:55.065Z,22.95
2023-05-13T03:20:21.880Z,27.25
2023-05-13T03:22:48.748Z,24.33
2023-05-13T03:25:15.662Z,30.17
2023-05-13T03:27:42.508Z,31.42
2023-05-13T03:30:10.579Z,45.25
2023-05-13T03:32:37.277Z,45.28
2023-05-13T03:35:04.483Z,37.88
2023-05-13T03:37:31.333Z,33.58
2023-05-13T03:39:57.966Z,39.40
2023-05-13T03:42:24.750Z,50.40
2023-05-13T03:44:51.377Z,42.08
2023-05-13T03:47:18.063Z,37.70
2023-05-13T03:49:44.800Z,46.95
2023-05-13T03:52:11.632Z,32.47
2023-05-13T03:54:38.354Z,33.05
2023-05-13T03:57:05.319Z,58.15
2023-05-13T03:59:31.972Z,50.38
2023-05-13T04:01:58.831Z,49.25
2023-05-13T04:04:25.802Z,35.83
2023-05-13T04:06:52.538Z,42.42
2023-05-13T04:09:19.243Z,37.35
2023-05-13T04:11:45.974Z,31.83
2023-05-13T04:14:12.655Z,38.20
2023-05-13T04:16:39.376Z,35.78
2023-05-13T04:19:06.238Z,41.65
2023-05-13T04:21:33.142Z,37.47
2023-05-13T04:23:59.886Z,38.08
2023-05-13T04:26:26.576Z,37.65
2023-05-13T04:28:53.313Z,42.50
2023-05-13T04:31:21.382Z,36.22
2023-05-13T04:33:48.174Z,36.22
2023-05-13T04:36:15.262Z,40.67
2023-05-13T04:38:42.057Z,35.25
2023-05-13T04:41:08.722Z,46.42
2023-05-13T04:43:35.391Z,41.88
2023-05-13T04:46:02.090Z,33.65
2023-05-13T04:48:28.819Z,32.65
2023-05-13T04:50:56.688Z,34.15
2023-05-13T04:53:23.998Z,32.03
2023-05-13T04:55:50.832Z,35.53
2023-05-13T04:58:17.594Z,35.28
2023-05-13T05:00:44.238Z,36.40
2023-05-13T05:03:11.557Z,31.92
2023-05-13T05:05:38.211Z,33.00
2023-05-13T05:08:05.662Z,29.85
2023-05-13T05:10:32.461Z,30.23
2023-05-13T05:12:59.333Z,27.70
2023-05-13T05:15:26.119Z,31.52
2023-05-13T05:17:55.583Z,28.27
2023-05-13T05:20:24.307Z,33.28
2023-05-13T05:22:50.996Z,27.10
2023-05-13T05:25:17.658Z,36.40
2023-05-13T05:27:44.395Z,28.20
2023-05-13T05:30:11.827Z,23.10
2023-05-13T05:32:38.837Z,26.33
2023-05-13T05:35:05.990Z,30.40
2023-05-13T05:37:32.747Z,27.17
2023-05-13T05:39:59.438Z,24.65
2023-05-13T05:42:26.173Z,21.90
2023-05-13T05:44:52.908Z,23.92
2023-05-13T05:47:19.565Z,26.13
2023-05-13T05:49:46.444Z,26.73
2023-05-13T05:52:13.447Z,27.65
2023-05-13T05:54:40.106Z,37.00
2023-05-13T05:57:06.776Z,23.92
2023-05-13T05:59:33.490Z,24.40
2023-05-13T06:02:00.279Z,37.80
2023-05-13T06:04:27.126Z,30.50
2023-05-13T06:06:53.895Z,27.73
2023-05-13T06:09:20.678Z,29.98
2023-05-13T06:11:47.353Z,23.77
2023-05-13T06:14:14.091Z,21.08
2023-05-13T06:16:41.046Z,26.15
2023-05-13T06:19:07.799Z,20.85
2023-05-13T06:21:34.852Z,20.95
2023-05-13T06:24:03.162Z,20.58
2023-05-13T06:26:30.022Z,21.77
2023-05-13T06:28:56.740Z,23.13
2023-05-13T06:31:23.391Z,20.33
2023-05-13T06:33:50.138Z,27.65
2023-05-13T06:36:16.824Z,21.80
2023-05-13T06:38:43.497Z,19.35
2023-05-13T06:41:10.247Z,20.08
2023-05-13T06:43:36.913Z,21.02
2023-05-13T06:46:03.637Z,21.23
2023-05-13T06:48:30.430Z,29.52
2023-05-13T06:50:57.157Z,28.48
2023-05-13T06:53:23.768Z,15.90
2023-05-13T06:55:50.436Z,14.80
2023-05-13T06:58:17.787Z,16.13
2023-05-13T07:00:46.774Z,13.98
2023-05-13T07:03:13.540Z,15.68
2023-05-13T07:05:40.270Z,13.82
2023-05-13T07:08:07.146Z,14.82
2023-05-13T07:10:34.447Z,13.90
2023-05-13T07:13:02.164Z,38.90
2023-05-13T07:15:28.987Z,27.92
2023-05-13T07:17:55.816Z,17.02
2023-05-13T07:20:23.647Z,13.82
2023-05-13T07:22:51.254Z,16.80
2023-05-13T07:25:18.810Z,14.80
2023-05-13T07:27:45.544Z,15.55
2023-05-13T07:30:12.696Z,15.93
2023-05-13T07:32:40.127Z,12.63
2023-05-13T07:35:08.140Z,12.18
2023-05-13T07:37:34.836Z,9.75
2023-05-13T07:40:01.487Z,13.88
2023-05-13T07:42:30.018Z,14.05
2023-05-13T07:44:56.749Z,14.27
2023-05-13T07:47:23.629Z,12.68
2023-05-13T07:49:50.724Z,15.68
2023-05-13T07:52:17.450Z,8.60
2023-05-13T07:54:44.193Z,9.65
2023-05-13T07:57:10.963Z,9.02
2023-05-13T07:59:37.679Z,12.60
2023-05-13T08:02:04.459Z,11.77
2023-05-13T08:04:31.196Z,8.25
2023-05-13T08:06:57.934Z,9.63
2023-05-13T08:09:24.588Z,8.52
2023-05-13T08:11:51.301Z,13.68
2023-05-13T08:14:18.002Z,10.52
2023-05-13T08:16:44.767Z,9.95
2023-05-13T08:19:11.689Z,11.68
2023-05-13T08:21:38.600Z,9.73
2023-05-13T08:24:05.587Z,10.52
2023-05-13T08:26:32.613Z,9.32
2023-05-13T08:28:59.616Z,11.00
2023-05-13T08:31:26.880Z,8.82
2023-05-13T08:33:54.252Z,12.70
2023-05-13T08:36:22.939Z,10.18
2023-05-13T08:38:49.660Z,12.20
2023-05-13T08:41:16.719Z,9.27
2023-05-13T08:43:44.551Z,11.82
2023-05-13T08:46:12.351Z,9.25
2023-05-13T08:48:39.972Z,12.85
2023-05-13T08:51:06.697Z,8.95
2023-05-13T08:53:35.281Z,9.60
2023-05-13T08:56:02.349Z,9.07
2023-05-13T08:58:29.151Z,10.32
2023-05-13T09:00:56.404Z,11.25
2023-05-13T09:03:23.173Z,8.20
2023-05-13T09:05:50.777Z,12.00
2023-05-13T09:08:17.424Z,8.18
2023-05-13T09:10:44.110Z,9.60
2023-05-13T09:13:12.779Z,8.88
2023-05-13T09:15:42.180Z,7.35
2023-05-13T09:18:09.130Z,9.77
2023-05-13T09:20:36.449Z,7.95
2023-05-13T09:23:05.697Z,8.05
2023-05-13T09:25:32.746Z,7.32
2023-05-13T09:28:01.786Z,11.23
2023-05-13T09:30:45.580Z,12.35
2023-05-13T09:33:15.264Z,13.70
2023-05-13T09:35:53.651Z,14.27
2023-05-13T09:38:27.930Z,29.63
2023-05-13T09:40:57.476Z,10.88
2023-05-13T09:43:26.696Z,12.15
2023-05-13T09:45:54.955Z,8.10
2023-05-13T09:48:25.945Z,9.35
2023-05-13T09:50:53.451Z,8.48
2023-05-13T09:53:23.233Z,14.82
2023-05-13T09:55:51.866Z,9.55
2023-05-13T09:58:20.471Z,11.38
2023-05-13T10:00:49.171Z,10.98
2023-05-13T10:03:16.474Z,8.25
2023-05-13T10:05:43.482Z,10.75
2023-05-13T10:08:12.198Z,9.95
2023-05-13T10:10:39.474Z,11.18
2023-05-13T10:13:09.088Z,8.48
2023-05-13T10:15:35.925Z,11.13
2023-05-13T10:18:03.705Z,7.45
2023-05-13T10:20:32.182Z,8.55
2023-05-13T10:22:59.055Z,14.80
2023-05-13T10:25:25.924Z,9.57
2023-05-13T10:27:53.283Z,10.65
2023-05-13T10:30:26.232Z,8.27
2023-05-13T10:32:53.806Z,13.18
2023-05-13T10:35:20.734Z,11.68
2023-05-13T10:38:13.207Z,9.85
2023-05-13T10:41:12.363Z,8.73
2023-05-13T10:43:41.853Z,11.80
2023-05-13T10:46:17.941Z,8.20
2023-05-13T10:48:49.716Z,8.98
2023-05-13T10:51:18.689Z,9.73
2023-05-13T10:56:26.673Z,11.32
2023-05-13T10:59:04.220Z,12.50
2023-05-13T11:01:44.107Z,10.57
2023-05-13T11:04:21.656Z,10.80
2023-05-13T11:06:50.846Z,12.00
2023-05-13T11:09:20.513Z,9.18
2023-05-13T11:11:48.480Z,9.18
2023-05-13T11:14:20.809Z,15.73
2023-05-13T11:17:02.434Z,10.13
2023-05-13T11:19:30.119Z,8.00
2023-05-13T11:21:58.763Z,9.27
2023-05-13T11:24:26.731Z,9.20
2023-05-13T11:26:59.148Z,9.40
2023-05-13T11:29:34.356Z,13.43
2023-05-13T11:32:03.218Z,8.05
2023-05-13T11:34:30.439Z,10.05
2023-05-13T11:37:10.679Z,10.45
2023-05-13T11:39:41.433Z,7.60
2023-05-13T11:42:10.272Z,8.98
2023-05-13T11:44:45.305Z,8.60
2023-05-13T11:47:11.997Z,13.95
2023-05-13T11:49:39.028Z,11.95
2023-05-13T11:52:11.035Z,7.15
2023-05-13T11:54:55.022Z,9.85
2023-05-13T11:57:29.273Z,10.32
2023-05-13T12:00:06.724Z,10.50
2023-05-13T12:02:40.501Z,8.35
2023-05-13T12:05:09.608Z,10.10
2023-05-13T12:07:38.466Z,8.73
2023-05-13T12:10:06.837Z,9.98
2023-05-13T12:12:35.691Z,8.05
2023-05-13T12:15:03.790Z,9.23
2023-05-13T12:17:31.828Z,10.82
2023-05-13T12:20:17.727Z,7.13
2023-05-13T12:22:44.311Z,9.07
2023-05-13T12:25:35.924Z,10.25
2023-05-13T12:28:20.913Z,11.45
2023-05-13T12:31:01.431Z,9.25
2023-05-13T12:33:30.000Z,9.10
2023-05-13T12:36:15.072Z,9.80
2023-05-13T12:38:59.801Z,8.00
2023-05-13T12:41:29.415Z,8.50
2023-05-13T12:43:58.625Z,10.50
2023-05-13T12:46:25.824Z,9.80
2023-05-13T12:48:56.200Z,9.13
2023-05-13T12:51:23.328Z,10.15
2023-05-13T12:53:50.150Z,8.40
2023-05-13T12:56:16.867Z,9.73
2023-05-13T12:58:43.549Z,10.05
2023-05-13T13:01:10.221Z,9.15
2023-05-13T13:03:37.099Z,8.60
2023-05-13T13:06:04.057Z,9.43
2023-05-13T13:08:30.840Z,10.05
2023-05-13T13:10:59.273Z,9.30
2023-05-13T13:13:25.981Z,9.63
2023-05-13T13:15:52.997Z,12.48
2023-05-13T13:18:19.731Z,11.85
2023-05-13T13:20:46.479Z,9.68
2023-05-13T13:23:13.672Z,10.85
2023-05-13T13:25:40.306Z,9.63
2023-05-13T13:28:06.987Z,8.45
2023-05-13T13:30:33.612Z,9.13
2023-05-13T13:33:00.364Z,10.13
2023-05-13T13:35:27.172Z,8.38
2023-05-13T13:37:54.524Z,7.75
2023-05-13T13:40:21.537Z,9.05
2023-05-13T13:42:48.405Z,10.40
2023-05-13T13:45:15.278Z,7.95
2023-05-13T13:47:42.203Z,9.75
2023-05-13T13:50:10.123Z,14.05
2023-05-13T13:52:36.928Z,10.10
2023-05-13T13:55:03.887Z,26.45
2023-05-13T13:57:30.592Z,8.95
2023-05-13T13:59:57.311Z,10.20
2023-05-13T14:02:24.318Z,8.80
2023-05-13T14:04:52.693Z,10.15
2023-05-13T14:07:19.910Z,7.75
2023-05-13T14:09:46.703Z,11.88
2023-05-13T14:12:13.345Z,9.13
2023-05-13T14:14:40.046Z,22.98
2023-05-13T14:17:06.750Z,12.52
2023-05-13T14:19:33.413Z,11.95
2023-05-13T14:22:00.032Z,10.95
2023-05-13T14:24:27.665Z,10.27
2023-05-13T14:26:54.342Z,11.35
2023-05-13T14:29:21.167Z,10.43
2023-05-13T14:31:48.532Z,9.25
2023-05-13T14:34:16.590Z,8.38
2023-05-13T14:36:43.274Z,8.68
2023-05-13T14:39:10.718Z,19.83
2023-05-13T14:41:37.572Z,10.70
2023-05-13T14:44:04.213Z,10.90
2023-05-13T14:46:31.102Z,10.70
2023-05-13T14:48:57.840Z,11.23
2023-05-13T14:51:24.817Z,13.88
2023-05-13T14:53:51.687Z,13.68
2023-05-13T14:56:18.369Z,10.77
2023-05-13T14:58:45.113Z,7.50
2023-05-13T15:01:11.824Z,8.32
2023-05-13T15:03:38.605Z,10.88
2023-05-13T15:06:08.746Z,16.05
2023-05-13T15:08:36.862Z,10.82
2023-05-13T15:11:03.774Z,13.95
2023-05-13T15:13:35.221Z,13.55
2023-05-13T15:16:03.585Z,8.73
2023-05-13T15:18:30.970Z,10.27
2023-05-13T15:20:57.713Z,11.05
2023-05-13T15:23:24.431Z,17.30
2023-05-13T15:25:51.293Z,10.13
2023-05-13T15:28:17.956Z,13.35
2023-05-13T15:30:44.611Z,13.98
2023-05-13T15:33:11.469Z,10.38
2023-05-13T15:35:39.460Z,14.98
2023-05-13T15:38:06.145Z,13.48
2023-05-13T15:40:32.831Z,10.55
2023-05-13T15:42:59.487Z,10.93
2023-05-13T15:45:28.039Z,11.82
2023-05-13T15:47:54.816Z,16.17
2023-05-13T15:50:21.778Z,13.00
2023-05-13T15:52:50.133Z,11.30
2023-05-13T15:55:16.825Z,16.08
2023-05-13T15:57:43.500Z,16.80
2023-05-13T16:00:10.742Z,12.70
2023-05-13T16:02:41.524Z,12.93
2023-05-13T16:05:08.594Z,15.57
2023-05-13T16:07:35.451Z,15.20
2023-05-13T16:10:02.101Z,11.25
2023-05-13T16:12:30.172Z,11.63
2023-05-13T16:14:57.075Z,11.82
2023-05-13T16:17:24.259Z,12.85
2023-05-13T16:19:51.037Z,13.95
2023-05-13T16:22:30.478Z,15.30
2023-05-13T16:25:08.958Z,16.90
2023-05-13T16:27:36.430Z,22.23
2023-05-13T16:30:04.332Z,38.70
2023-05-13T16:32:31.077Z,21.95
2023-05-13T16:34:57.840Z,11.98
2023-05-13T16:37:24.742Z,16.63
2023-05-13T16:39:51.635Z,17.67
2023-05-13T16:42:19.761Z,13.52
2023-05-13T16:44:49.232Z,14.68
2023-05-13T16:47:16.054Z,13.15
2023-05-13T16:49:42.808Z,16.42
2023-05-13T16:52:09.509Z,15.63
2023-05-13T16:54:36.184Z,12.18
2023-05-13T16:57:02.826Z,13.98
2023-05-13T16:59:29.605Z,18.00
2023-05-13T17:01:56.459Z,14.18
2023-05-13T17:04:23.175Z,13.57
2023-05-13T17:06:50.049Z,15.30
2023-05-13T17:09:16.704Z,24.48
2023-05-13T17:11:43.493Z,12.63
2023-05-13T17:14:10.242Z,13.55
2023-05-13T17:16:37.183Z,12.93
2023-05-13T17:19:03.944Z,13.35
2023-05-13T17:21:30.687Z,22.13
2023-05-13T17:23:57.505Z,16.27
2023-05-13T17:26:24.174Z,12.23
2023-05-13T17:28:51.246Z,12.82
2023-05-13T17:31:18.483Z,14.20
2023-05-13T17:33:46.725Z,22.00
2023-05-13T17:36:13.460Z,14.98
2023-05-13T17:38:40.163Z,14.27
2023-05-13T17:41:06.816Z,12.85
2023-05-13T17:43:33.544Z,15.07
2023-05-13T17:46:00.282Z,17.05
2023-05-13T17:48:27.187Z,17.15
2023-05-13T17:50:54.209Z,15.15
2023-05-13T17:53:21.384Z,15.02
2023-05-13T17:55:48.750Z,19.33
2023-05-13T17:58:16.192Z,18.77
2023-05-13T18:00:43.106Z,13.75
2023-05-13T18:03:09.883Z,12.63
2023-05-13T18:05:36.787Z,16.80
2023-05-13T18:08:03.640Z,30.10
2023-05-13T18:10:30.436Z,15.02
2023-05-13T18:12:57.321Z,16.23
2023-05-13T18:15:24.072Z,12.68
2023-05-13T18:17:50.873Z,13.82
2023-05-13T18:20:18.478Z,21.40
2023-05-13T18:22:45.357Z,24.38
2023-05-13T18:25:12.164Z,32.70
2023-05-13T18:27:38.889Z,27.98
2023-05-13T18:30:07.313Z,26.58
2023-05-13T18:32:33.992Z,23.85
2023-05-13T18:35:00.730Z,21.83
2023-05-13T18:37:27.525Z,22.95
2023-05-13T18:39:54.177Z,30.23
2023-05-13T18:42:21.345Z,26.27
2023-05-13T18:44:48.091Z,25.60
2023-05-13T18:47:14.743Z,22.88
2023-05-13T18:49:41.461Z,23.02
2023-05-13T18:52:08.280Z,35.28
2023-05-13T18:54:36.226Z,32.13
2023-05-13T18:57:03.143Z,72.63
2023-05-13T18:59:29.986Z,49.25
2023-05-13T19:01:57.444Z,201.75
2023-05-13T19:04:24.555Z,165.02
2023-05-13T19:06:51.547Z,58.22
2023-05-13T19:09:18.210Z,207.48
2023-05-13T19:11:44.877Z,180.95
2023-05-13T19:14:11.594Z,369.40
2023-05-13T19:16:38.439Z,371.17
2023-05-13T19:19:05.468Z,165.70
2023-05-13T19:21:32.145Z,164.70
2023-05-13T19:23:58.911Z,64.38
2023-05-13T19:26:25.710Z,41.92
2023-05-13T19:28:52.553Z,26.80
2023-05-13T19:31:19.333Z,21.73
2023-05-13T19:33:46.491Z,23.10
2023-05-13T19:36:13.426Z,20.73
2023-05-13T19:38:40.173Z,25.95
2023-05-13T19:41:06.859Z,20.75
2023-05-13T19:43:33.531Z,21.20
2023-05-13T19:46:00.356Z,24.30
2023-05-13T19:48:29.826Z,19.42
2023-05-13T19:50:57.938Z,20.25
2023-05-13T19:53:24.681Z,22.98
2023-05-13T19:55:51.564Z,25.05
2023-05-13T19:58:18.394Z,29.23
2023-05-13T20:00:45.354Z,24.45
2023-05-13T20:03:12.168Z,26.08
2023-05-13T20:05:41.272Z,29.75
2023-05-13T20:08:08.102Z,34.78
2023-05-13T20:10:37.917Z,23.85
2023-05-13T20:13:04.870Z,21.92
2023-05-13T20:15:32.192Z,23.27
2023-05-13T20:17:59.104Z,22.58
2023-05-13T20:20:25.960Z,30.08
2023-05-13T20:22:52.694Z,21.25
2023-05-13T20:25:19.528Z,27.38
2023-05-13T20:27:46.269Z,29.52
2023-05-13T20:30:13.392Z,27.58
2023-05-13T20:32:40.374Z,26.08
2023-05-13T20:35:07.801Z,29.70
2023-05-13T20:37:35.085Z,30.98
2023-05-13T20:40:01.766Z,24.10
2023-05-13T20:42:28.637Z,26.95
2023-05-13T20:44:55.993Z,23.15
2023-05-13T20:47:22.672Z,30.13
2023-05-13T20:49:49.414Z,29.58
2023-05-13T20:52:16.351Z,32.38
2023-05-13T20:54:43.087Z,24.27
2023-05-13T20:57:09.742Z,34.15
2023-05-13T20:59:36.482Z,24.35
2023-05-13T21:02:03.328Z,26.00
2023-05-13T21:04:30.038Z,27.40
2023-05-13T21:06:57.407Z,24.30
2023-05-13T21:09:24.152Z,24.77
2023-05-13T21:11:50.831Z,22.33
2023-05-13T21:14:17.438Z,19.45
2023-05-13T21:16:44.138Z,24.58
2023-05-13T21:19:19.625Z,22.52
2023-05-13T21:21:46.321Z,18.33
2023-05-13T21:24:16.903Z,25.88
2023-05-13T21:26:43.750Z,25.55
2023-05-13T21:29:10.372Z,25.90
2023-05-13T21:31:37.105Z,21.88
2023-05-13T21:34:03.894Z,29.05
2023-05-13T21:36:31.839Z,26.65
2023-05-13T21:38:58.666Z,24.33
2023-05-13T21:41:26.217Z,23.55
2023-05-13T21:43:52.880Z,23.15
2023-05-13T21:46:19.577Z,25.05
2023-05-13T21:48:46.893Z,22.08
2023-05-13T21:51:13.860Z,21.73
2023-05-13T21:53:40.669Z,28.67
2023-05-13T21:56:07.349Z,24.33
2023-05-13T21:58:33.959Z,25.83
2023-05-13T22:01:01.339Z,22.90
2023-05-13T22:03:28.141Z,24.67
2023-05-13T22:05:54.865Z,26.58
2023-05-13T22:08:22.110Z,25.60
2023-05-13T22:10:48.830Z,24.35
2023-05-13T22:13:15.757Z,28.42
2023-05-13T22:15:42.489Z,21.35
2023-05-13T22:18:09.445Z,29.27
2023-05-13T22:20:36.249Z,28.70
2023-05-13T22:23:02.934Z,32.25
2023-05-13T22:25:29.628Z,29.27
2023-05-13T22:27:56.339Z,50.08
2023-05-13T22:30:23.362Z,43.28
2023-05-13T22:32:51.020Z,26.10
2023-05-13T22:35:17.764Z,25.85
2023-05-13T22:37:44.464Z,24.50
2023-05-13T22:40:11.738Z,27.50
2023-05-13T22:42:38.554Z,27.13
2023-05-13T22:45:05.624Z,22.90
2023-05-13T22:47:32.360Z,22.33
2023-05-13T22:49:59.081Z,28.13
2023-05-13T22:52:25.713Z,22.23
2023-05-13T22:54:52.453Z,23.27
2023-05-13T22:57:19.146Z,23.80
2023-05-13T22:59:46.020Z,31.23
2023-05-13T23:02:12.803Z,32.92
2023-05-13T23:04:39.585Z,40.33
2023-05-13T23:07:06.262Z,33.22
2023-05-13T23:09:32.934Z,31.33
2023-05-13T23:11:59.603Z,23.13
2023-05-13T23:14:27.704Z,21.45
2023-05-13T23:16:54.443Z,27.65
2023-05-13T23:19:21.110Z,22.60
2023-05-13T23:21:47.791Z,25.65
2023-05-13T23:24:14.471Z,21.27
2023-05-13T23:26:41.168Z,23.00
2023-05-13T23:29:07.911Z,20.25
2023-05-13T23:31:34.645Z,24.42
2023-05-13T23:34:01.456Z,23.25
2023-05-13T23:36:28.121Z,29.13
2023-05-13T23:38:54.928Z,28.55
2023-05-13T23:41:21.865Z,40.53
2023-05-13T23:43:48.492Z,47.20
2023-05-13T23:46:15.255Z,54.17
2023-05-13T23:48:41.929Z,41.08
2023-05-13T23:51:08.725Z,31.55
2023-05-13T23:53:35.495Z,19.73
2023-05-13T23:56:02.185Z,17.42
2023-05-13T23:58:28.895Z,22.90
